Trikwong Venture — VRIZ8 — position and weather

sailwx.info

Track history (hours):
 
Tides and Currents Weather Stations Pressure Air Temp Water Temp Dewpoint Dewpoint Depression Visibility Wind Speed Wind Dir Waves Ship Positions

Trikwong Venture

Last reported at 2018-Jun-17 22:00 UTC. Time now 2018-Jun-17 22:12 UTC.
Position N 01°17' E 104°07'.

Length 330 m; draft 11 m.

Type: Ship. MMSI: 477274600.

Date/timePositionNaut miles runAvg speedWind from/ knotsBaromVisibWave heightAir tempDewpointWater temp
2018-Jun-17 22:00N 01°17' E 104°07'1 2.3
2018-Jun-17 21:30N 01°17' E 104°08'1 2.7
2018-Jun-17 21:00N 01°17' E 104°10'3 5.9
2018-Jun-17 20:29N 01°18' E 104°13'4 7.6
2018-Jun-17 20:00N 01°18' E 104°16'5 9.1
2018-Jun-17 19:29N 01°20' E 104°21'510.4
2018-Jun-17 18:59N 01°23' E 104°24'610.9
2018-Jun-17 18:28N 01°27' E 104°29'  
2018-Jun-11 13:23N 22°36' E 119°49'411.1
2018-Jun-11 13:00N 22°40' E 119°51'510.8
2018-Jun-11 12:30N 22°45' E 119°53'612.1
2018-Jun-11 12:00N 22°51' E 119°53'  
2018-Jun-08 06:16N 37°40' E 123°14'311.8
2018-Jun-08 06:00N 37°41' E 123°10'611.7
2018-Jun-08 05:29N 37°44' E 123°03'611.6
2018-Jun-08 04:59N 37°47' E 122°57'611.9
2018-Jun-08 04:29N 37°49' E 122°50'611.9
2018-Jun-08 04:00N 37°51' E 122°43'612.0
2018-Jun-08 03:29N 37°53' E 122°36'1311.1
2018-Jun-08 02:20N 37°58' E 122°20'411.9
2018-Jun-08 01:57N 38°01' E 122°17'  
Track history (hours):
 
Tides and Currents Weather Stations Pressure Air Temp Water Temp Dewpoint Dewpoint Depression Visibility Wind Speed Wind Dir Waves Ship Positions

Trikwong Venture

Last reported at 2018-Jun-17 22:00 UTC. Time now 2018-Jun-17 22:12 UTC.
Position N 01°17' E 104°07'.

Length 330 m; draft 11 m.

Type: Ship. MMSI: 477274600.

Date/timePositionNaut miles runAvg speedWind from/ knotsBaromVisibWave heightAir tempDewpointWater temp
2018-Jun-17 22:00N 01°17' E 104°07'1 2.3
2018-Jun-17 21:30N 01°17' E 104°08'1 2.7
2018-Jun-17 21:00N 01°17' E 104°10'3 5.9
2018-Jun-17 20:29N 01°18' E 104°13'4 7.6
2018-Jun-17 20:00N 01°18' E 104°16'5 9.1
2018-Jun-17 19:29N 01°20' E 104°21'510.4
2018-Jun-17 18:59N 01°23' E 104°24'610.9
2018-Jun-17 18:28N 01°27' E 104°29'  
2018-Jun-11 13:23N 22°36' E 119°49'411.1
2018-Jun-11 13:00N 22°40' E 119°51'510.8
2018-Jun-11 12:30N 22°45' E 119°53'612.1
2018-Jun-11 12:00N 22°51' E 119°53'  
2018-Jun-08 06:16N 37°40' E 123°14'311.8
2018-Jun-08 06:00N 37°41' E 123°10'611.7
2018-Jun-08 05:29N 37°44' E 123°03'611.6
2018-Jun-08 04:59N 37°47' E 122°57'611.9
2018-Jun-08 04:29N 37°49' E 122°50'611.9
2018-Jun-08 04:00N 37°51' E 122°43'612.0
2018-Jun-08 03:29N 37°53' E 122°36'1311.1
2018-Jun-08 02:20N 37°58' E 122°20'411.9
2018-Jun-08 01:57N 38°01' E 122°17'  

Dump ship's entire track history